createdAt,value
2023-04-22T00:02:09.742Z,13.68
2023-04-22T00:04:38.330Z,12.73
2023-04-22T00:07:06.513Z,13.11
2023-04-22T00:09:36.099Z,12.92
2023-04-22T00:12:03.530Z,11.97
2023-04-22T00:14:31.714Z,14.25
2023-04-22T00:17:00.190Z,13.30
2023-04-22T00:19:29.927Z,13.49
2023-04-22T00:21:57.089Z,12.35
2023-04-22T00:24:25.705Z,12.92
2023-04-22T00:26:54.035Z,12.54
2023-04-22T00:29:22.435Z,11.97
2023-04-22T00:31:50.946Z,11.97
2023-04-22T00:34:19.731Z,12.54
2023-04-22T00:36:47.682Z,11.78
2023-04-22T00:39:16.279Z,12.54
2023-04-22T00:41:44.364Z,13.68
2023-04-22T00:44:13.067Z,12.92
2023-04-22T00:46:41.780Z,12.35
2023-04-22T00:49:09.822Z,11.78
2023-04-22T00:51:38.186Z,12.54
2023-04-22T00:54:06.877Z,12.92
2023-04-22T00:56:38.207Z,13.30
2023-04-22T00:59:11.105Z,12.54
2023-04-22T01:01:39.548Z,12.16
2023-04-22T01:04:12.355Z,13.49
2023-04-22T01:06:44.603Z,12.92
2023-04-22T01:09:13.937Z,12.92
2023-04-22T01:11:43.701Z,14.06
2023-04-22T01:14:14.133Z,12.92
2023-04-22T01:16:45.557Z,13.68
2023-04-22T01:19:15.727Z,13.30
2023-04-22T01:21:47.480Z,13.11
2023-04-22T01:24:17.134Z,13.68
2023-04-22T01:26:48.837Z,14.25
2023-04-22T01:29:17.802Z,15.20
2023-04-22T01:31:48.128Z,13.30
2023-04-22T01:34:18.367Z,14.06
2023-04-22T01:36:48.576Z,13.87
2023-04-22T01:39:18.525Z,14.44
2023-04-22T01:41:49.073Z,13.68
2023-04-22T01:44:19.835Z,13.68
2023-04-22T01:46:49.115Z,12.92
2023-04-22T01:49:18.962Z,13.49
2023-04-22T01:51:48.830Z,13.11
2023-04-22T01:54:18.722Z,12.54
2023-04-22T01:56:54.488Z,12.92
2023-04-22T01:59:24.338Z,13.30
2023-04-22T02:01:54.195Z,13.49
2023-04-22T02:04:24.085Z,13.11
2023-04-22T02:06:53.882Z,12.35
2023-04-22T02:09:22.312Z,13.49
2023-04-22T02:11:50.742Z,13.68
2023-04-22T02:14:19.165Z,13.49
2023-04-22T02:16:47.545Z,11.78
2023-04-22T02:19:16.211Z,13.87
2023-04-22T02:21:44.513Z,13.30
2023-04-22T02:24:12.841Z,13.30
2023-04-22T02:26:41.579Z,12.92
2023-04-22T02:29:09.625Z,12.54
2023-04-22T02:31:38.156Z,13.30
2023-04-22T02:34:06.581Z,14.63
2023-04-22T02:36:35.038Z,13.11
2023-04-22T02:39:05.545Z,12.92
2023-04-22T02:41:34.683Z,13.49
2023-04-22T02:44:03.157Z,14.44
2023-04-22T02:46:31.610Z,13.68
2023-04-22T02:49:00.143Z,14.06
2023-04-22T02:51:28.756Z,14.44
2023-04-22T02:53:56.896Z,13.68
2023-04-22T02:56:26.614Z,13.11
2023-04-22T02:58:53.785Z,14.63
2023-04-22T03:01:22.233Z,14.25
2023-04-22T03:03:50.992Z,13.68
2023-04-22T03:06:19.185Z,14.44
2023-04-22T03:08:47.581Z,14.06
2023-04-22T03:11:15.960Z,14.06
2023-04-22T03:13:44.348Z,13.87
2023-04-22T03:16:13.132Z,14.25
2023-04-22T03:18:41.451Z,13.11
2023-04-22T03:21:09.622Z,13.68
2023-04-22T03:23:37.975Z,13.68
2023-04-22T03:26:06.685Z,14.63
2023-04-22T03:28:34.867Z,14.06
2023-04-22T03:31:03.342Z,13.49
2023-04-22T03:33:31.694Z,14.63
2023-04-22T03:36:00.159Z,13.87
2023-04-22T03:38:28.700Z,13.49
2023-04-22T03:40:57.003Z,14.06
2023-04-22T03:43:25.714Z,15.01
2023-04-22T03:45:53.876Z,13.30
2023-04-22T03:48:22.331Z,14.63
2023-04-22T03:50:50.673Z,13.49
2023-04-22T03:53:19.082Z,14.25
2023-04-22T03:55:47.536Z,14.44
2023-04-22T03:58:15.972Z,13.68
2023-04-22T04:00:44.578Z,14.25
2023-04-22T04:03:13.011Z,14.82
2023-04-22T04:05:41.523Z,14.82
2023-04-22T04:08:09.822Z,14.44
2023-04-22T04:10:38.552Z,14.25
2023-04-22T04:13:06.652Z,15.20
2023-04-22T04:15:36.860Z,15.20
2023-04-22T04:18:06.612Z,14.63
2023-04-22T04:20:34.870Z,14.06
2023-04-22T04:23:03.334Z,14.44
2023-04-22T04:25:37.798Z,14.25
2023-04-22T04:28:09.348Z,15.01
2023-04-22T04:30:41.717Z,15.77
2023-04-22T04:33:12.248Z,16.15
2023-04-22T04:35:41.654Z,13.68
2023-04-22T04:38:12.852Z,13.49
2023-04-22T04:40:45.382Z,11.97
2023-04-22T04:43:12.975Z,13.49
2023-04-22T04:45:49.664Z,14.82
2023-04-22T04:48:19.996Z,13.68
2023-04-22T04:50:50.364Z,14.25
2023-04-22T04:53:22.663Z,15.58
2023-04-22T04:55:49.770Z,14.25
2023-04-22T04:58:17.505Z,15.77
2023-04-22T05:00:47.299Z,13.87
2023-04-22T05:03:17.267Z,14.63
2023-04-22T05:05:48.959Z,14.44
2023-04-22T05:08:18.055Z,14.44
2023-04-22T05:10:47.807Z,15.01
2023-04-22T05:13:17.625Z,13.30
2023-04-22T05:15:47.501Z,14.06
2023-04-22T05:18:18.116Z,13.30
2023-04-22T05:20:47.355Z,15.01
2023-04-22T05:23:17.162Z,15.20
2023-04-22T05:25:47.108Z,14.44
2023-04-22T05:28:16.965Z,15.20
2023-04-22T05:30:46.768Z,14.25
2023-04-22T05:33:16.801Z,14.44
2023-04-22T05:35:46.798Z,16.53
2023-04-22T05:38:16.624Z,15.39
2023-04-22T05:40:46.440Z,14.82
2023-04-22T05:43:16.368Z,14.06
2023-04-22T05:45:46.353Z,15.39
2023-04-22T05:48:16.176Z,14.63
2023-04-22T05:50:45.964Z,14.44
2023-04-22T05:53:15.743Z,14.63
2023-04-22T05:55:45.628Z,15.58
2023-04-22T05:58:15.731Z,14.44
2023-04-22T06:00:43.795Z,14.82
2023-04-22T06:03:12.546Z,13.68
2023-04-22T06:05:40.822Z,13.87
2023-04-22T06:08:09.056Z,15.39
2023-04-22T06:10:37.580Z,15.39
2023-04-22T06:13:06.252Z,15.39
2023-04-22T06:15:34.935Z,14.44
2023-04-22T06:18:03.091Z,14.25
2023-04-22T06:20:32.723Z,13.87
2023-04-22T06:22:59.521Z,13.87
2023-04-22T06:25:28.367Z,14.44
2023-04-22T06:27:56.387Z,13.68
2023-04-22T06:30:25.660Z,14.82
2023-04-22T06:32:55.094Z,15.01
2023-04-22T06:35:24.627Z,14.82
2023-04-22T06:37:53.186Z,15.01
2023-04-22T06:40:21.627Z,14.82
2023-04-22T06:42:49.915Z,14.82
2023-04-22T06:45:18.576Z,14.25
2023-04-22T06:47:47.307Z,14.82
2023-04-22T06:50:15.204Z,15.20
2023-04-22T06:52:43.646Z,14.82
2023-04-22T06:55:12.097Z,14.25
2023-04-22T06:57:40.464Z,14.25
2023-04-22T07:00:09.841Z,15.01
2023-04-22T07:02:37.269Z,15.20
2023-04-22T07:05:05.886Z,14.82
2023-04-22T07:07:34.338Z,14.63
2023-04-22T07:10:02.529Z,14.44
2023-04-22T07:12:31.180Z,13.68
2023-04-22T07:14:59.386Z,14.25
2023-04-22T07:17:27.837Z,15.39
2023-04-22T07:19:56.181Z,14.82
2023-04-22T07:22:24.661Z,14.44
2023-04-22T07:24:53.054Z,14.25
2023-04-22T07:27:21.427Z,13.49
2023-04-22T07:29:49.940Z,14.06
2023-04-22T07:32:18.405Z,14.06
2023-04-22T07:34:46.786Z,14.06
2023-04-22T07:37:15.252Z,14.82
2023-04-22T07:39:43.510Z,14.63
2023-04-22T07:42:17.644Z,13.30
2023-04-22T07:44:47.418Z,14.06
2023-04-22T07:47:17.845Z,14.06
2023-04-22T07:49:47.562Z,15.01
2023-04-22T07:52:17.449Z,15.20
2023-04-22T07:54:47.224Z,14.06
2023-04-22T07:57:17.045Z,13.30
2023-04-22T07:59:46.858Z,15.20
2023-04-22T08:02:16.811Z,15.39
2023-04-22T08:04:46.959Z,14.25
2023-04-22T08:07:31.025Z,14.82
2023-04-22T08:10:02.963Z,13.68
2023-04-22T08:12:32.803Z,14.82
2023-04-22T08:15:02.675Z,13.68
2023-04-22T08:17:32.624Z,13.68
2023-04-22T08:20:02.923Z,13.11
2023-04-22T08:22:33.269Z,13.68
2023-04-22T08:25:03.167Z,12.35
2023-04-22T08:27:32.983Z,14.25
2023-04-22T08:30:03.572Z,14.06
2023-04-22T08:32:32.388Z,14.06
2023-04-22T08:35:05.219Z,14.82
2023-04-22T08:37:35.693Z,14.44
2023-04-22T08:40:06.735Z,14.06
2023-04-22T08:42:34.892Z,13.87
2023-04-22T08:45:05.616Z,14.06
2023-04-22T08:47:35.828Z,13.30
2023-04-22T08:50:08.558Z,13.49
2023-04-22T08:52:38.363Z,12.92
2023-04-22T08:55:08.774Z,13.87
2023-04-22T08:57:42.710Z,13.49
2023-04-22T09:00:13.345Z,12.92
2023-04-22T09:02:45.948Z,12.54
2023-04-22T09:05:16.344Z,14.44
2023-04-22T09:07:46.216Z,12.73
2023-04-22T09:10:16.243Z,13.11
2023-04-22T09:12:48.611Z,12.16
2023-04-22T09:15:18.375Z,13.68
2023-04-22T09:17:52.196Z,11.97
2023-04-22T09:20:28.186Z,12.35
2023-04-22T09:23:05.148Z,11.97
2023-04-22T09:25:37.533Z,12.16
2023-04-22T09:28:13.168Z,11.97
2023-04-22T09:30:41.097Z,11.78
2023-04-22T09:33:10.988Z,13.11
2023-04-22T09:35:42.977Z,12.54
2023-04-22T09:38:13.001Z,12.16
2023-04-22T09:40:44.371Z,12.35
2023-04-22T09:43:20.533Z,13.30
2023-04-22T09:45:47.482Z,12.16
2023-04-22T09:48:19.468Z,11.21
2023-04-22T09:50:51.342Z,11.40
2023-04-22T09:53:21.773Z,11.02
2023-04-22T09:55:53.896Z,11.78
2023-04-22T09:58:27.697Z,11.21
2023-04-22T10:00:59.277Z,12.54
2023-04-22T10:03:28.567Z,11.78
2023-04-22T10:05:59.464Z,11.21
2023-04-22T10:08:30.611Z,12.35
2023-04-22T10:10:59.722Z,10.26
2023-04-22T10:13:29.787Z,10.83
2023-04-22T10:16:01.083Z,10.64
2023-04-22T10:18:32.952Z,10.83
2023-04-22T10:21:02.888Z,10.64
2023-04-22T10:23:33.923Z,11.40
2023-04-22T10:26:05.799Z,11.40
2023-04-22T10:28:34.886Z,10.07
2023-04-22T10:31:24.451Z,11.21
2023-04-22T10:34:14.245Z,10.64
2023-04-22T10:37:14.316Z,11.21
2023-04-22T10:40:11.023Z,10.45
2023-04-22T10:42:41.962Z,10.64
2023-04-22T10:45:15.048Z,11.40
2023-04-22T10:47:45.193Z,10.83
2023-04-22T10:50:32.190Z,11.21
2023-04-22T10:53:37.707Z,13.49
2023-04-22T10:56:20.229Z,11.59
2023-04-22T10:58:51.308Z,10.45
2023-04-22T11:01:21.404Z,10.45
2023-04-22T11:03:51.899Z,9.88
2023-04-22T11:06:23.331Z,9.69
2023-04-22T11:09:10.176Z,10.45
2023-04-22T11:11:40.012Z,10.26
2023-04-22T11:14:11.481Z,9.88
2023-04-22T11:16:47.554Z,9.69
2023-04-22T11:19:17.705Z,10.26
2023-04-22T11:21:49.491Z,10.07
2023-04-22T11:24:20.897Z,10.26
2023-04-22T11:26:50.961Z,9.69
2023-04-22T11:29:21.026Z,11.59
2023-04-22T11:31:50.911Z,10.07
2023-04-22T11:34:20.915Z,10.07
2023-04-22T11:36:50.835Z,10.26
2023-04-22T11:39:20.646Z,11.40
2023-04-22T11:41:50.665Z,10.64
2023-04-22T11:44:23.862Z,8.93
2023-04-22T11:46:57.313Z,9.88
2023-04-22T11:49:26.841Z,9.69
2023-04-22T11:51:57.778Z,9.50
2023-04-22T11:54:43.104Z,10.07
2023-04-22T11:57:15.670Z,10.64
2023-04-22T11:59:59.031Z,10.07
2023-04-22T12:02:29.021Z,9.50
2023-04-22T12:05:00.412Z,9.50
2023-04-22T12:07:33.103Z,9.88
2023-04-22T12:10:07.655Z,9.50
2023-04-22T12:12:40.191Z,9.50
2023-04-22T12:15:13.755Z,10.07
2023-04-22T12:17:45.299Z,9.50
2023-04-22T12:20:13.464Z,9.31
2023-04-22T12:22:41.513Z,9.88
2023-04-22T12:25:10.761Z,9.12
2023-04-22T12:27:38.233Z,9.69
2023-04-22T12:30:08.966Z,10.07
2023-04-22T12:32:38.807Z,9.88
2023-04-22T12:35:09.004Z,9.88
2023-04-22T12:37:38.911Z,9.50
2023-04-22T12:40:10.355Z,9.69
2023-04-22T12:42:40.359Z,9.69
2023-04-22T12:45:10.761Z,10.45
2023-04-22T12:47:40.718Z,11.02
2023-04-22T12:50:10.822Z,11.78
2023-04-22T12:52:40.725Z,10.64
2023-04-22T12:55:10.542Z,10.07
2023-04-22T12:57:40.599Z,10.45
2023-04-22T13:00:14.311Z,10.64
2023-04-22T13:02:47.801Z,10.07
2023-04-22T13:05:19.608Z,10.45
2023-04-22T13:07:59.655Z,10.45
2023-04-22T13:10:36.270Z,11.21
2023-04-22T13:15:41.468Z,11.59
2023-04-22T13:18:11.394Z,11.02
2023-04-22T13:20:42.416Z,11.21
2023-04-22T13:23:13.368Z,11.59
2023-04-22T13:25:43.325Z,13.49
2023-04-22T13:28:13.213Z,10.64
2023-04-22T13:30:43.227Z,10.64
2023-04-22T13:33:13.220Z,12.16
2023-04-22T13:35:43.225Z,9.88
2023-04-22T13:38:11.517Z,10.64
2023-04-22T13:40:40.005Z,10.83
2023-04-22T13:43:09.980Z,10.45
2023-04-22T13:45:40.816Z,11.40
2023-04-22T13:48:08.322Z,9.50
2023-04-22T13:50:36.659Z,9.50
2023-04-22T13:53:07.916Z,10.64
2023-04-22T13:55:39.497Z,9.12
2023-04-22T13:58:09.659Z,9.69
2023-04-22T14:00:39.535Z,10.45
2023-04-22T14:03:09.740Z,10.64
2023-04-22T14:05:39.680Z,10.83
2023-04-22T14:08:09.624Z,9.31
2023-04-22T14:10:39.423Z,10.07
2023-04-22T14:13:09.327Z,9.69
2023-04-22T14:15:39.295Z,9.50
2023-04-22T14:18:09.208Z,10.83
2023-04-22T14:20:39.098Z,10.26
2023-04-22T14:23:09.547Z,11.02
2023-04-22T14:25:39.384Z,11.21
2023-04-22T14:28:09.403Z,10.26
2023-04-22T14:30:39.694Z,10.26
2023-04-22T14:33:10.644Z,9.88
2023-04-22T14:35:40.507Z,10.26
2023-04-22T14:38:12.378Z,10.07
2023-04-22T14:40:42.395Z,10.64
2023-04-22T14:43:12.437Z,9.88
2023-04-22T14:45:42.431Z,9.50
2023-04-22T14:48:12.549Z,10.07
2023-04-22T14:50:43.525Z,9.31
2023-04-22T14:53:13.374Z,9.31
2023-04-22T14:55:43.201Z,11.78
2023-04-22T14:58:13.582Z,9.31
2023-04-22T15:00:43.356Z,10.83
2023-04-22T15:03:13.406Z,10.26
2023-04-22T15:05:44.153Z,10.64
2023-04-22T15:08:13.902Z,10.26
2023-04-22T15:10:43.927Z,9.88
2023-04-22T15:13:12.034Z,9.50
2023-04-22T15:15:40.739Z,9.69
2023-04-22T15:18:10.582Z,8.74
2023-04-22T15:20:37.903Z,9.31
2023-04-22T15:23:06.073Z,8.74
2023-04-22T15:25:35.642Z,10.26
2023-04-22T15:28:04.162Z,9.12
2023-04-22T15:30:31.293Z,8.93
2023-04-22T15:32:59.645Z,9.69
2023-04-22T15:35:28.271Z,9.12
2023-04-22T15:37:58.330Z,9.12
2023-04-22T15:40:27.894Z,9.12
2023-04-22T15:42:56.320Z,8.93
2023-04-22T15:45:24.662Z,9.12
2023-04-22T15:47:54.411Z,8.55
2023-04-22T15:50:23.524Z,8.93
2023-04-22T15:52:54.272Z,9.12
2023-04-22T15:55:24.181Z,9.12
2023-04-22T15:57:53.912Z,10.07
2023-04-22T16:00:24.022Z,8.93
2023-04-22T16:02:56.667Z,9.69
2023-04-22T16:05:28.263Z,8.93
2023-04-22T16:07:58.091Z,9.50
2023-04-22T16:10:28.102Z,9.69
2023-04-22T16:12:57.889Z,10.64
2023-04-22T16:15:27.829Z,9.88
2023-04-22T16:17:58.113Z,10.64
2023-04-22T16:20:28.361Z,9.12
2023-04-22T16:22:59.284Z,8.74
2023-04-22T16:25:29.541Z,8.55
2023-04-22T16:27:59.498Z,8.74
2023-04-22T16:30:29.401Z,9.12
2023-04-22T16:32:59.386Z,8.55
2023-04-22T16:35:29.352Z,8.74
2023-04-22T16:37:59.179Z,8.93
2023-04-22T16:40:29.081Z,8.17
2023-04-22T16:43:05.013Z,8.17
2023-04-22T16:45:34.913Z,9.12
2023-04-22T16:48:04.742Z,9.12
2023-04-22T16:50:34.754Z,9.69
2023-04-22T16:53:04.864Z,9.69
2023-04-22T16:55:36.375Z,8.74
2023-04-22T16:58:06.885Z,8.93
2023-04-22T17:00:36.775Z,9.12
2023-04-22T17:03:08.060Z,9.88
2023-04-22T17:05:38.257Z,9.31
2023-04-22T17:08:08.605Z,16.91
2023-04-22T17:10:45.055Z,16.53
2023-04-22T17:13:16.120Z,13.11
2023-04-22T17:15:43.291Z,11.78
2023-04-22T17:18:11.686Z,14.63
2023-04-22T17:20:40.526Z,14.25
2023-04-22T17:23:08.539Z,12.35
2023-04-22T17:25:37.284Z,11.97
2023-04-22T17:28:05.784Z,12.16
2023-04-22T17:30:33.768Z,11.78
2023-04-22T17:33:02.284Z,12.16
2023-04-22T17:35:30.534Z,17.10
2023-04-22T17:37:59.078Z,47.50
2023-04-22T17:40:27.562Z,37.81
2023-04-22T17:42:55.943Z,32.68
2023-04-22T17:45:24.316Z,26.41
2023-04-22T17:47:52.715Z,19.57
2023-04-22T17:50:21.222Z,16.53
2023-04-22T17:52:49.601Z,15.58
2023-04-22T17:55:18.242Z,15.01
2023-04-22T17:57:46.650Z,13.49
2023-04-22T18:04:36.698Z,11.97
2023-04-22T18:07:06.616Z,11.40
2023-04-22T18:09:36.535Z,12.92
2023-04-22T18:12:10.782Z,12.54
2023-04-22T18:14:41.401Z,12.73
2023-04-22T18:17:11.548Z,13.30
2023-04-22T18:19:41.757Z,12.54
2023-04-22T18:22:12.392Z,14.63
2023-04-22T18:24:42.643Z,14.63
2023-04-22T18:27:12.759Z,13.68
2023-04-22T18:29:43.028Z,13.11
2023-04-22T18:32:13.223Z,11.59
2023-04-22T18:34:43.339Z,12.54
2023-04-22T18:37:13.471Z,13.30
2023-04-22T18:39:43.283Z,15.01
2023-04-22T18:42:17.895Z,15.39
2023-04-22T18:44:47.683Z,16.34
2023-04-22T18:47:17.867Z,18.05
2023-04-22T18:49:47.577Z,16.91
2023-04-22T18:52:17.743Z,17.10
2023-04-22T18:54:47.465Z,17.48
2023-04-22T18:57:17.441Z,16.91
2023-04-22T18:59:48.496Z,16.91
2023-04-22T19:02:18.304Z,21.85
2023-04-22T19:04:47.349Z,20.71
2023-04-22T19:07:15.170Z,18.81
2023-04-22T19:09:43.568Z,19.95
2023-04-22T19:12:16.573Z,21.85
2023-04-22T19:14:43.771Z,26.60
2023-04-22T19:17:11.852Z,27.55
2023-04-22T19:19:40.624Z,31.92
2023-04-22T19:22:09.588Z,32.30
2023-04-22T19:24:37.480Z,39.14
2023-04-22T19:27:12.162Z,37.62
2023-04-22T19:29:43.143Z,36.48
2023-04-22T19:32:13.260Z,30.40
2023-04-22T19:34:43.608Z,28.69
2023-04-22T19:37:13.495Z,26.79
2023-04-22T19:39:43.766Z,26.60
2023-04-22T19:42:18.369Z,25.84
2023-04-22T19:44:48.467Z,22.42
2023-04-22T19:47:18.955Z,23.56
2023-04-22T19:49:49.243Z,22.61
2023-04-22T19:52:22.035Z,22.80
2023-04-22T19:54:56.096Z,19.76
2023-04-22T19:57:26.719Z,19.19
2023-04-22T19:59:56.710Z,18.05
2023-04-22T20:02:28.601Z,15.96
2023-04-22T20:04:58.875Z,17.48
2023-04-22T20:07:30.105Z,17.29
2023-04-22T20:09:58.022Z,16.72
2023-04-22T20:12:28.921Z,16.34
2023-04-22T20:14:58.584Z,14.25
2023-04-22T20:17:27.223Z,15.39
2023-04-22T20:19:57.485Z,14.82
2023-04-22T20:22:27.626Z,15.58
2023-04-22T20:25:03.920Z,15.58
2023-04-22T20:27:34.981Z,15.96
2023-04-22T20:30:07.317Z,17.29
2023-04-22T20:32:36.417Z,17.67
2023-04-22T20:35:07.291Z,17.86
2023-04-22T20:37:39.954Z,15.58
2023-04-22T20:40:11.686Z,16.72
2023-04-22T20:42:41.708Z,15.58
2023-04-22T20:45:15.466Z,15.58
2023-04-22T20:47:45.319Z,15.96
2023-04-22T20:50:16.077Z,14.25
2023-04-22T20:52:45.992Z,14.06
2023-04-22T20:55:16.949Z,13.87
2023-04-22T20:57:46.914Z,13.11
2023-04-22T21:00:16.746Z,13.68
2023-04-22T21:02:47.532Z,13.87
2023-04-22T21:05:18.606Z,15.20
2023-04-22T21:07:52.704Z,14.06
2023-04-22T21:10:23.270Z,14.44
2023-04-22T21:12:54.906Z,14.25
2023-04-22T21:15:25.110Z,15.01
2023-04-22T21:17:56.635Z,14.44
2023-04-22T21:20:28.777Z,14.63
2023-04-22T21:23:00.308Z,14.44
2023-04-22T21:25:32.125Z,14.63
2023-04-22T21:28:02.644Z,16.72
2023-04-22T21:30:33.281Z,14.63
2023-04-22T21:33:03.100Z,14.63
2023-04-22T21:35:33.082Z,14.63
2023-04-22T21:38:03.319Z,14.44
2023-04-22T21:40:33.445Z,14.82
2023-04-22T21:43:02.369Z,14.82
2023-04-22T21:45:31.042Z,14.63
2023-04-22T21:48:02.220Z,15.39
2023-04-22T21:50:31.109Z,14.82
2023-04-22T21:52:58.395Z,15.39
2023-04-22T21:55:26.633Z,16.15
2023-04-22T21:57:55.655Z,15.39
2023-04-22T22:00:25.037Z,15.96
2023-04-22T22:02:53.123Z,15.20
2023-04-22T22:05:23.258Z,15.58
2023-04-22T22:07:53.083Z,17.10
2023-04-22T22:10:23.930Z,15.77
2023-04-22T22:12:53.828Z,15.96
2023-04-22T22:15:23.826Z,15.58
2023-04-22T22:17:53.966Z,15.20
2023-04-22T22:20:23.816Z,15.01
2023-04-22T22:22:53.775Z,15.96
2023-04-22T22:25:23.735Z,15.77
2023-04-22T22:27:53.644Z,16.72
2023-04-22T22:30:23.502Z,16.34
2023-04-22T22:32:53.329Z,15.77
2023-04-22T22:35:23.060Z,16.91
2023-04-22T22:37:52.845Z,15.58
2023-04-22T22:40:22.583Z,15.39
2023-04-22T22:42:52.456Z,14.82
2023-04-22T22:45:22.290Z,15.01
2023-04-22T22:47:53.556Z,16.72
2023-04-22T22:50:24.670Z,16.91
2023-04-22T22:52:54.521Z,15.96
2023-04-22T22:55:26.552Z,15.58
2023-04-22T22:57:56.279Z,16.15
2023-04-22T23:00:26.468Z,15.58
2023-04-22T23:02:56.317Z,16.72
2023-04-22T23:05:26.281Z,16.91
2023-04-22T23:07:54.628Z,16.72
2023-04-22T23:10:23.067Z,16.34
2023-04-22T23:12:51.542Z,15.77
2023-04-22T23:15:20.034Z,15.58
2023-04-22T23:17:51.201Z,15.58
2023-04-22T23:20:21.950Z,14.44
2023-04-22T23:22:53.186Z,14.44
2023-04-22T23:25:23.754Z,14.63
2023-04-22T23:27:54.015Z,14.82
2023-04-22T23:30:24.644Z,15.20
2023-04-22T23:32:57.675Z,14.63
2023-04-22T23:35:27.591Z,14.44
2023-04-22T23:37:58.865Z,15.01
2023-04-22T23:40:28.577Z,14.44
2023-04-22T23:42:58.392Z,14.82
2023-04-22T23:45:28.170Z,16.53
2023-04-22T23:47:58.013Z,15.77
2023-04-22T23:50:27.956Z,15.77
2023-04-22T23:52:58.380Z,16.53
2023-04-22T23:55:29.374Z,16.72
2023-04-22T23:57:59.356Z,16.53
